Time;durP1;ratioP1;P1;durP2;ratioP2;P2;SDS_P1;SDS_P2;PMS_P1;PMS_P2;Temp;Humidity;BMP_temperature;BMP_pressure;BME280_temperature;BME280_humidity;BME280_pressure;Samples;Min_cycle;Max_cycle;Signal;HPM_P1;HPM_P2
2021/06/25 00:01:35;;;;;;;;;21.25;19.50;;;;;;;;5044688;28;45556;-80
2021/06/25 00:04:00;;;;;;;;;17.50;16.25;;;;;;;;5024152;28;46018;-79
2021/06/25 00:06:26;;;;;;;;;18.67;15.00;;;;;;;;5124918;22;45499;-89
2021/06/25 00:08:51;;;;;;;;;17.75;17.00;;;;;;;;5013781;28;47075;-88
2021/06/25 00:11:16;;;;;;;;;24.75;19.50;;;;;;;;5017329;28;45456;-88
2021/06/25 00:13:41;;;;;;;;;21.50;17.75;;;;;;;;5015971;28;45633;-89
2021/06/25 00:16:07;;;;;;;;;28.00;18.67;;;;;;;;5069336;22;45981;-89
2021/06/25 00:18:32;;;;;;;;;26.50;17.25;;;;;;;;5017160;28;47073;-88
2021/06/25 00:20:57;;;;;;;;;21.33;20.00;;;;;;;;5023273;28;45445;-88
2021/06/25 00:23:23;;;;;;;;;22.50;20.25;;;;;;;;5013130;28;45710;-89
2021/06/25 00:25:48;;;;;;;;;23.00;19.25;;;;;;;;5021868;28;46992;-89
2021/06/25 00:28:13;;;;;;;;;17.75;17.75;;;;;;;;5012568;28;46298;-88
2021/06/25 00:30:39;;;;;;;;;19.33;17.67;;;;;;;;5012972;28;45349;-88
2021/06/25 00:33:04;;;;;;;;;25.75;19.75;;;;;;;;5020006;28;45442;-89
2021/06/25 00:35:33;;;;;;;;;23.00;20.00;;;;;;;;5016632;28;45414;-89
2021/06/25 00:37:58;;;;;;;;;21.25;19.25;;;;;;;;5031018;28;48105;-88
2021/06/25 00:40:23;;;;;;;;;23.67;18.67;;;;;;;;5031269;22;45871;-80
2021/06/25 00:42:49;;;;;;;;;21.75;20.25;;;;;;;;5011731;28;45761;-80
2021/06/25 00:45:16;;;;;;;;;22.00;20.50;;;;;;;;5011771;28;45776;-80
2021/06/25 00:47:42;;;;;;;;;19.00;15.75;;;;;;;;5007213;28;48273;-80
2021/06/25 00:50:08;;;;;;;;;21.50;18.75;;;;;;;;5009133;28;46031;-80
2021/06/25 00:52:33;;;;;;;;;24.75;19.50;;;;;;;;5013389;28;47125;-81
2021/06/25 00:54:59;;;;;;;;;22.25;19.75;;;;;;;;5008731;28;46058;-80
2021/06/25 00:57:24;;;;;;;;;25.75;19.00;;;;;;;;5010701;28;45603;-78
2021/06/25 00:59:49;;;;;;;;;26.75;21.75;;;;;;;;5009752;28;45327;-78
2021/06/25 01:02:14;;;;;;;;;23.00;20.00;;;;;;;;5003876;28;45659;-78
2021/06/25 01:04:40;;;;;;;;;23.00;22.00;;;;;;;;5004937;28;45642;-79
2021/06/25 01:07:05;;;;;;;;;24.25;21.25;;;;;;;;5009492;28;48389;-78
2021/06/25 01:09:34;;;;;;;;;24.00;20.25;;;;;;;;5016555;28;46017;-78
2021/06/25 01:12:02;;;;;;;;;23.50;19.50;;;;;;;;5007518;28;45664;-78
2021/06/25 01:14:27;;;;;;;;;23.50;21.50;;;;;;;;5014466;28;46457;-77
2021/06/25 01:16:52;;;;;;;;;28.67;19.00;;;;;;;;5021268;28;45677;-77
2021/06/25 01:19:17;;;;;;;;;23.33;21.00;;;;;;;;5025152;28;45539;-78
2021/06/25 01:21:43;;;;;;;;;23.75;18.75;;;;;;;;5008726;28;45687;-78
2021/06/25 01:24:09;;;;;;;;;26.25;23.50;;;;;;;;5007442;28;45627;-78
2021/06/25 01:26:34;;;;;;;;;26.00;22.00;;;;;;;;5005111;28;48240;-78
2021/06/25 01:29:00;;;;;;;;;26.00;21.00;;;;;;;;5016648;28;45608;-78
2021/06/25 01:31:25;;;;;;;;;21.50;21.50;;;;;;;;5006621;28;45578;-78
2021/06/25 01:33:50;;;;;;;;;24.33;20.00;;;;;;;;5011250;28;45583;-78
2021/06/25 01:36:16;;;;;;;;;26.25;21.25;;;;;;;;5013533;28;45406;-78
2021/06/25 01:38:42;;;;;;;;;21.75;20.25;;;;;;;;5011819;28;45599;-78
2021/06/25 01:41:08;;;;;;;;;25.25;22.25;;;;;;;;5018499;28;45672;-78
2021/06/25 01:43:34;;;;;;;;;24.67;21.33;;;;;;;;5008974;28;52632;-78
2021/06/25 01:45:59;;;;;;;;;27.50;22.75;;;;;;;;5004994;28;46336;-78
2021/06/25 01:48:24;;;;;;;;;23.00;19.25;;;;;;;;5011962;28;45438;-78
2021/06/25 01:50:50;;;;;;;;;29.33;19.33;;;;;;;;5005025;28;45535;-78
2021/06/25 01:53:17;;;;;;;;;25.00;20.75;;;;;;;;5012528;28;46261;-79
2021/06/25 01:55:43;;;;;;;;;22.25;18.75;;;;;;;;5078052;22;46197;-77
2021/06/25 01:58:11;;;;;;;;;19.00;18.50;;;;;;;;4989943;28;45438;-77
2021/06/25 02:00:38;;;;;;;;;21.25;20.00;;;;;;;;5000435;28;45802;-77
2021/06/25 02:03:03;;;;;;;;;28.00;23.00;;;;;;;;4999524;28;45536;-76
2021/06/25 02:05:28;;;;;;;;;26.75;22.50;;;;;;;;4990754;28;46149;-77
2021/06/25 02:07:54;;;;;;;;;32.00;25.00;;;;;;;;4998660;28;64931;-77
2021/06/25 02:10:19;;;;;;;;;25.67;22.33;;;;;;;;4987302;28;48218;-78
2021/06/25 02:12:44;;;;;;;;;21.25;19.25;;;;;;;;4983474;28;45396;-77
2021/06/25 02:15:10;;;;;;;;;24.75;20.00;;;;;;;;4987274;28;45910;-76
2021/06/25 02:17:35;;;;;;;;;24.00;16.75;;;;;;;;4993719;28;45459;-77
2021/06/25 02:20:00;;;;;;;;;32.50;25.00;;;;;;;;5000311;28;45502;-77
2021/06/25 02:22:26;;;;;;;;;28.33;21.67;;;;;;;;4985495;28;45641;-77
2021/06/25 02:24:51;;;;;;;;;23.00;15.67;;;;;;;;4993117;28;46116;-77
2021/06/25 02:27:16;;;;;;;;;20.00;18.00;;;;;;;;4994741;28;45777;-77
2021/06/25 02:29:41;;;;;;;;;25.25;20.50;;;;;;;;4992054;28;45783;-77
2021/06/25 02:32:07;;;;;;;;;26.00;21.33;;;;;;;;4995364;28;45517;-77
2021/06/25 02:34:32;;;;;;;;;23.75;19.50;;;;;;;;4992315;28;45978;-77
2021/06/25 02:36:58;;;;;;;;;28.50;20.50;;;;;;;;4992511;28;45545;-77
2021/06/25 02:39:23;;;;;;;;;27.25;23.50;;;;;;;;4988763;28;46320;-77
2021/06/25 02:41:49;;;;;;;;;27.50;23.00;;;;;;;;4995601;28;45455;-77
2021/06/25 02:44:14;;;;;;;;;23.75;20.00;;;;;;;;5002005;28;59161;-77
2021/06/25 02:46:40;;;;;;;;;22.50;17.75;;;;;;;;4987226;28;46275;-77
2021/06/25 02:49:05;;;;;;;;;24.00;20.75;;;;;;;;4986924;28;45751;-77
2021/06/25 02:51:30;;;;;;;;;22.33;17.67;;;;;;;;4991747;28;46418;-77
2021/06/25 02:53:55;;;;;;;;;29.00;19.50;;;;;;;;4986386;28;45589;-77
2021/06/25 02:56:20;;;;;;;;;20.00;18.33;;;;;;;;4992669;28;45577;-80
2021/06/25 02:58:46;;;;;;;;;18.75;18.00;;;;;;;;4992193;28;45501;-79
2021/06/25 03:01:11;;;;;;;;;20.33;16.67;;;;;;;;4993433;28;52008;-80
2021/06/25 03:03:36;;;;;;;;;21.50;19.00;;;;;;;;4994129;28;45542;-79
2021/06/25 03:06:02;;;;;;;;;20.50;16.50;;;;;;;;4995923;28;45435;-79
2021/06/25 03:08:27;;;;;;;;;21.00;18.00;;;;;;;;5049127;22;45770;-80
2021/06/25 03:10:52;;;;;;;;;26.00;17.25;;;;;;;;5010584;28;45672;-79
2021/06/25 03:13:18;;;;;;;;;23.75;17.25;;;;;;;;4996059;28;47918;-79
2021/06/25 03:15:43;;;;;;;;;23.25;20.00;;;;;;;;5020372;28;45542;-79
2021/06/25 03:18:09;;;;;;;;;25.25;18.00;;;;;;;;5006515;28;45798;-79
2021/06/25 03:20:34;;;;;;;;;21.75;18.75;;;;;;;;5009227;28;45570;-79
2021/06/25 03:22:59;;;;;;;;;21.33;17.67;;;;;;;;5001513;28;47088;-80
2021/06/25 03:25:24;;;;;;;;;21.00;16.50;;;;;;;;5010846;28;45733;-79
2021/06/25 03:27:50;;;;;;;;;27.67;18.00;;;;;;;;5021438;28;45469;-82
2021/06/25 03:30:15;;;;;;;;;20.00;17.25;;;;;;;;5000757;28;45836;-79
2021/06/25 03:32:41;;;;;;;;;23.25;19.50;;;;;;;;4993193;28;47120;-79
2021/06/25 03:35:07;;;;;;;;;23.00;18.00;;;;;;;;5012840;28;45682;-80
2021/06/25 03:37:32;;;;;;;;;20.50;18.00;;;;;;;;4998491;28;52511;-79
2021/06/25 03:39:58;;;;;;;;;23.50;20.25;;;;;;;;5008706;28;58326;-80
2021/06/25 03:42:23;;;;;;;;;25.25;21.50;;;;;;;;5017987;28;46151;-79
2021/06/25 03:44:48;;;;;;;;;25.67;20.33;;;;;;;;4987337;28;45445;-80
2021/06/25 03:47:13;;;;;;;;;25.00;20.00;;;;;;;;5017415;28;45490;-79
2021/06/25 03:49:39;;;;;;;;;19.67;18.00;;;;;;;;5008855;28;45501;-80
2021/06/25 03:52:05;;;;;;;;;21.33;18.00;;;;;;;;5013924;28;45633;-79
2021/06/25 03:54:30;;;;;;;;;20.25;17.75;;;;;;;;5012473;28;46474;-79
2021/06/25 03:56:55;;;;;;;;;23.33;19.00;;;;;;;;5019822;28;45626;-80
2021/06/25 03:59:20;;;;;;;;;27.50;22.00;;;;;;;;5010808;28;45474;-84
2021/06/25 04:01:46;;;;;;;;;28.50;19.25;;;;;;;;5012636;28;47980;-79
2021/06/25 04:04:11;;;;;;;;;24.25;21.00;;;;;;;;5005509;28;45512;-79
2021/06/25 04:06:36;;;;;;;;;25.33;23.33;;;;;;;;5012673;28;51717;-79
2021/06/25 04:09:02;;;;;;;;;25.00;22.00;;;;;;;;5008560;28;45516;-79
2021/06/25 04:11:28;;;;;;;;;21.25;18.25;;;;;;;;5012641;28;46410;-79
2021/06/25 04:13:53;;;;;;;;;25.50;21.00;;;;;;;;5011004;28;46290;-79
2021/06/25 04:16:18;;;;;;;;;25.33;21.00;;;;;;;;5006971;28;49379;-79
2021/06/25 04:18:43;;;;;;;;;22.00;18.75;;;;;;;;5009532;28;45438;-79
2021/06/25 04:21:09;;;;;;;;;22.00;20.00;;;;;;;;5010367;28;46349;-79
2021/06/25 04:23:34;;;;;;;;;25.50;22.25;;;;;;;;5008762;28;45569;-79
2021/06/25 04:26:00;;;;;;;;;30.50;21.50;;;;;;;;5007174;28;45605;-79
2021/06/25 04:28:25;;;;;;;;;20.50;20.50;;;;;;;;5010051;28;63853;-79
2021/06/25 04:30:51;;;;;;;;;20.75;19.25;;;;;;;;4997676;28;48533;-79
2021/06/25 04:33:16;;;;;;;;;26.00;21.00;;;;;;;;5006991;28;46375;-79
2021/06/25 04:35:42;;;;;;;;;22.75;20.25;;;;;;;;5006693;28;45481;-79
2021/06/25 04:38:08;;;;;;;;;26.00;20.50;;;;;;;;5020585;28;45503;-79
2021/06/25 04:40:36;;;;;;;;;24.75;21.50;;;;;;;;5008468;28;45916;-79
2021/06/25 04:43:01;;;;;;;;;28.50;22.25;;;;;;;;5016140;28;45818;-80
2021/06/25 04:45:26;;;;;;;;;25.00;23.50;;;;;;;;5019056;28;47514;-80
2021/06/25 04:47:52;;;;;;;;;35.00;22.00;;;;;;;;5002375;28;45726;-80
2021/06/25 04:50:17;;;;;;;;;28.00;21.75;;;;;;;;5018209;28;47922;-79
2021/06/25 04:52:42;;;;;;;;;30.50;24.50;;;;;;;;5009353;28;45462;-79
2021/06/25 04:55:08;;;;;;;;;25.00;20.25;;;;;;;;5011007;28;45905;-79
2021/06/25 04:57:37;;;;;;;;;30.00;20.75;;;;;;;;5058364;22;45448;-89
2021/06/25 05:00:03;;;;;;;;;21.75;19.50;;;;;;;;5028437;28;47263;-88
2021/06/25 05:02:28;;;;;;;;;25.50;22.50;;;;;;;;5022833;28;46547;-89
2021/06/25 05:04:53;;;;;;;;;22.67;21.33;;;;;;;;5021476;28;45532;-88
2021/06/25 05:07:18;;;;;;;;;26.67;25.33;;;;;;;;5025858;28;45571;-89
2021/06/25 05:09:43;;;;;;;;;30.00;23.67;;;;;;;;5074552;22;46513;-80
2021/06/25 05:12:09;;;;;;;;;23.67;23.00;;;;;;;;4988536;28;45581;-80
2021/06/25 05:14:34;;;;;;;;;24.00;21.50;;;;;;;;4989028;28;45575;-80
2021/06/25 05:16:59;;;;;;;;;22.25;22.00;;;;;;;;4996728;28;45569;-80
2021/06/25 05:19:27;;;;;;;;;27.00;20.00;;;;;;;;4990054;28;45506;-81
2021/06/25 05:21:53;;;;;;;;;30.75;22.25;;;;;;;;4978054;28;45777;-81
2021/06/25 05:24:18;;;;;;;;;30.25;23.25;;;;;;;;4992520;28;45591;-80
2021/06/25 05:26:43;;;;;;;;;26.00;23.00;;;;;;;;4990441;28;45496;-80
2021/06/25 05:29:08;;;;;;;;;29.00;25.67;;;;;;;;5000898;28;47008;-81
2021/06/25 05:31:33;;;;;;;;;20.67;20.33;;;;;;;;4988149;28;45249;-80
2021/06/25 05:33:59;;;;;;;;;27.00;23.33;;;;;;;;4993975;28;45469;-81
2021/06/25 05:36:24;;;;;;;;;23.33;22.00;;;;;;;;4996969;28;45534;-80
2021/06/25 05:38:49;;;;;;;;;30.00;22.75;;;;;;;;4991595;28;45660;-80
2021/06/25 05:41:15;;;;;;;;;30.75;24.50;;;;;;;;4987633;28;45775;-80
2021/06/25 05:43:42;;;;;;;;;28.00;23.75;;;;;;;;4994932;28;49663;-80
2021/06/25 05:46:07;;;;;;;;;31.00;22.75;;;;;;;;4997390;28;45570;-81
2021/06/25 05:48:32;;;;;;;;;25.00;22.00;;;;;;;;4997826;28;46192;-81
2021/06/25 05:50:58;;;;;;;;;25.75;24.00;;;;;;;;4989428;28;45753;-81
2021/06/25 05:53:23;;;;;;;;;36.50;26.50;;;;;;;;4986035;28;45390;-80
2021/06/25 05:55:49;;;;;;;;;28.00;22.00;;;;;;;;4987762;28;47256;-80
2021/06/25 05:58:14;;;;;;;;;24.50;23.25;;;;;;;;4989139;28;46785;-80
2021/06/25 06:00:39;;;;;;;;;21.33;17.67;;;;;;;;4997333;28;45404;-80
2021/06/25 06:03:04;;;;;;;;;23.00;21.25;;;;;;;;4993596;28;45564;-80
2021/06/25 06:05:30;;;;;;;;;27.75;23.75;;;;;;;;4982033;28;45586;-80
2021/06/25 06:07:55;;;;;;;;;27.75;21.75;;;;;;;;5001154;28;46191;-81
2021/06/25 06:10:20;;;;;;;;;24.25;20.50;;;;;;;;4991785;28;45565;-81
2021/06/25 06:12:46;;;;;;;;;25.25;21.75;;;;;;;;4995087;28;45723;-81
2021/06/25 06:15:12;;;;;;;;;28.25;23.00;;;;;;;;4987593;28;47752;-81
2021/06/25 06:17:38;;;;;;;;;26.75;21.50;;;;;;;;4992070;28;46230;-81
2021/06/25 06:20:04;;;;;;;;;27.00;23.00;;;;;;;;4988027;28;45568;-80
2021/06/25 06:33:41;;;;;;;;;28.50;23.00;;;;;;;;4993413;28;45614;-80
2021/06/25 06:36:14;;;;;;;;;24.25;21.50;;;;;;;;4991223;28;46589;-78
2021/06/25 06:38:42;;;;;;;;;27.00;22.00;;;;;;;;4988059;28;45402;-78
2021/06/25 06:41:07;;;;;;;;;27.25;22.75;;;;;;;;5000652;28;45732;-78
2021/06/25 06:43:34;;;;;;;;;24.00;20.33;;;;;;;;4989819;28;45561;-78
2021/06/25 06:45:59;;;;;;;;;21.50;19.00;;;;;;;;4991826;28;45514;-81
2021/06/25 06:48:24;;;;;;;;;23.50;21.75;;;;;;;;4993073;28;46609;-81
2021/06/25 06:50:49;;;;;;;;;20.33;17.67;;;;;;;;4982985;28;45510;-81
2021/06/25 06:53:15;;;;;;;;;28.33;20.33;;;;;;;;4995729;28;45651;-81
2021/06/25 06:55:43;;;;;;;;;26.67;25.67;;;;;;;;4983540;28;45562;-77
2021/06/25 06:58:09;;;;;;;;;26.75;21.75;;;;;;;;4988576;28;45685;-78
2021/06/25 07:00:34;;;;;;;;;25.25;20.75;;;;;;;;4996111;28;45400;-78
2021/06/25 07:03:00;;;;;;;;;27.00;22.67;;;;;;;;4982987;28;45537;-78
2021/06/25 07:05:25;;;;;;;;;25.00;21.00;;;;;;;;4990207;28;45493;-79
2021/06/25 07:07:50;;;;;;;;;21.75;20.75;;;;;;;;4994548;28;47422;-78
2021/06/25 07:10:15;;;;;;;;;28.25;22.00;;;;;;;;4979907;28;45605;-78
2021/06/25 07:12:42;;;;;;;;;24.75;22.75;;;;;;;;4994180;28;45407;-79
2021/06/25 07:15:07;;;;;;;;;24.25;22.75;;;;;;;;4976037;28;45617;-78
2021/06/25 07:17:33;;;;;;;;;29.75;23.50;;;;;;;;4987929;28;46958;-78
2021/06/25 07:19:58;;;;;;;;;27.75;23.00;;;;;;;;4992207;28;45465;-78
2021/06/25 07:22:25;;;;;;;;;22.33;22.00;;;;;;;;4989880;28;46168;-78
2021/06/25 07:24:50;;;;;;;;;30.00;23.75;;;;;;;;4989809;28;45670;-78
2021/06/25 07:27:15;;;;;;;;;26.33;21.67;;;;;;;;4986774;28;46493;-79
2021/06/25 07:29:42;;;;;;;;;28.33;20.67;;;;;;;;4990210;28;45412;-78
2021/06/25 07:32:08;;;;;;;;;21.50;21.50;;;;;;;;4990196;28;46383;-78
2021/06/25 07:34:33;;;;;;;;;25.00;19.75;;;;;;;;4989916;28;46964;-78
2021/06/25 07:36:59;;;;;;;;;25.00;21.50;;;;;;;;4990126;28;47366;-79
2021/06/25 07:39:26;;;;;;;;;25.00;23.33;;;;;;;;4989552;28;45497;-79
2021/06/25 07:41:51;;;;;;;;;22.50;18.00;;;;;;;;4979974;28;45582;-75
2021/06/25 07:44:16;;;;;;;;;18.75;18.50;;;;;;;;4994301;28;45640;-76
2021/06/25 07:46:42;;;;;;;;;20.00;18.00;;;;;;;;5315809;22;48956;-78
2021/06/25 07:49:07;;;;;;;;;18.00;17.00;;;;;;;;5011688;28;46262;-80
2021/06/25 07:51:33;;;;;;;;;22.00;18.50;;;;;;;;5011524;28;45409;-79
2021/06/25 07:53:58;;;;;;;;;23.25;18.25;;;;;;;;5009049;28;45647;-81
2021/06/25 07:56:23;;;;;;;;;28.50;23.50;;;;;;;;5012077;28;46106;-79
2021/06/25 07:58:48;;;;;;;;;23.00;18.00;;;;;;;;5006593;28;48002;-79
2021/06/25 08:01:14;;;;;;;;;19.67;17.33;;;;;;;;5014784;28;45437;-79
2021/06/25 08:03:39;;;;;;;;;23.75;18.75;;;;;;;;5010442;28;45531;-79
2021/06/25 08:06:05;;;;;;;;;22.00;18.75;;;;;;;;5004023;28;45525;-79
2021/06/25 08:08:30;;;;;;;;;25.25;20.75;;;;;;;;5015420;28;45860;-80
2021/06/25 08:10:55;;;;;;;;;18.67;18.00;;;;;;;;5006770;28;45416;-80
2021/06/25 08:13:20;;;;;;;;;25.25;20.50;;;;;;;;5012212;28;45540;-80
2021/06/25 08:15:49;;;;;;;;;21.00;18.00;;;;;;;;5010291;28;46193;-79
2021/06/25 08:18:15;;;;;;;;;18.50;17.25;;;;;;;;5020860;28;45383;-80
2021/06/25 08:20:40;;;;;;;;;24.25;18.00;;;;;;;;5010478;28;45584;-80
2021/06/25 08:23:08;;;;;;;;;17.25;17.00;;;;;;;;5028354;28;45525;-78
2021/06/25 08:25:38;;;;;;;;;20.50;16.50;;;;;;;;5006436;28;47772;-79
2021/06/25 08:30:33;;;;;;;;;16.00;15.00;;;;;;;;5026735;28;45535;-79
2021/06/25 08:32:59;;;;;;;;;22.00;17.00;;;;;;;;5033219;28;45432;-80
2021/06/25 08:35:24;;;;;;;;;19.50;17.75;;;;;;;;5029574;28;45593;-79
2021/06/25 08:37:51;;;;;;;;;19.50;17.50;;;;;;;;5032263;28;45756;-80
2021/06/25 08:40:17;;;;;;;;;20.75;19.75;;;;;;;;5038160;28;45432;-79
2021/06/25 08:42:42;;;;;;;;;19.25;18.25;;;;;;;;5031343;28;45535;-79
2021/06/25 08:45:08;;;;;;;;;20.75;19.00;;;;;;;;5031203;28;55880;-80
2021/06/25 08:47:44;;;;;;;;;18.25;15.00;;;;;;;;5049924;22;45746;-80
2021/06/25 08:50:10;;;;;;;;;20.75;17.75;;;;;;;;5012452;28;49576;-80
2021/06/25 08:52:36;;;;;;;;;22.00;17.50;;;;;;;;5006346;28;45624;-80
2021/06/25 08:55:01;;;;;;;;;18.50;18.00;;;;;;;;5023573;28;46586;-80
2021/06/25 08:57:27;;;;;;;;;17.50;17.00;;;;;;;;5017304;28;45391;-79
2021/06/25 08:59:52;;;;;;;;;21.25;17.25;;;;;;;;5007203;28;45462;-79
2021/06/25 09:02:18;;;;;;;;;21.50;18.75;;;;;;;;5009841;28;45604;-79
2021/06/25 09:04:45;;;;;;;;;21.25;18.25;;;;;;;;5007885;28;46224;-79
2021/06/25 09:07:12;;;;;;;;;24.00;18.25;;;;;;;;5011555;28;46196;-80
2021/06/25 09:09:47;;;;;;;;;17.75;16.75;;;;;;;;5042217;22;45828;-79
2021/06/25 09:12:14;;;;;;;;;22.25;18.25;;;;;;;;5007294;28;45454;-79
2021/06/25 09:14:58;;;;;;;;;20.25;19.50;;;;;;;;5008764;28;46416;-80
2021/06/25 09:17:23;;;;;;;;;15.50;14.00;;;;;;;;5013988;28;45577;-80
2021/06/25 09:19:49;;;;;;;;;18.00;18.00;;;;;;;;5013139;28;45684;-80
2021/06/25 09:22:14;;;;;;;;;20.33;17.67;;;;;;;;5031339;22;46024;-90
2021/06/25 09:24:39;;;;;;;;;25.50;18.75;;;;;;;;4984933;28;47115;-88
2021/06/25 09:27:08;;;;;;;;;22.67;17.67;;;;;;;;5003705;28;45503;-88
2021/06/25 09:29:36;;;;;;;;;19.25;17.25;;;;;;;;5001463;28;45471;-87
2021/06/25 09:32:04;;;;;;;;;17.75;17.75;;;;;;;;5031885;22;45594;-88
2021/06/25 09:34:42;;;;;;;;;17.50;14.75;;;;;;;;5023112;28;46541;-91
2021/06/25 09:37:13;;;;;;;;;20.50;17.00;;;;;;;;5039091;22;45533;-90
2021/06/25 09:39:41;;;;;;;;;19.00;16.75;;;;;;;;5041981;22;45473;-80
2021/06/25 09:42:27;;;;;;;;;19.25;17.75;;;;;;;;5007115;28;46257;-78
2021/06/25 09:45:12;;;;;;;;;18.50;17.00;;;;;;;;5005516;28;48369;-78
2021/06/25 09:47:39;;;;;;;;;20.00;15.25;;;;;;;;5010906;28;45602;-78
2021/06/25 09:50:05;;;;;;;;;21.50;17.00;;;;;;;;5013039;28;45761;-78
2021/06/25 09:52:50;;;;;;;;;21.75;16.25;;;;;;;;5024869;22;45552;-80
2021/06/25 09:55:19;;;;;;;;;19.00;17.50;;;;;;;;5013464;28;45543;-78
2021/06/25 10:01:21;;;;;;;;;19.25;16.50;;;;;;;;5003592;28;51122;-77
2021/06/25 10:03:30;;;;;;;;;16.00;14.75;;;;;;;;5003859;28;45579;-77
2021/06/25 10:06:12;;;;;;;;;16.00;13.00;;;;;;;;5002654;28;45604;-78
2021/06/25 10:08:38;;;;;;;;;15.25;13.75;;;;;;;;5011546;28;45534;-77
2021/06/25 10:11:05;;;;;;;;;20.50;13.75;;;;;;;;5002670;28;45557;-77
2021/06/25 10:13:34;;;;;;;;;15.00;15.00;;;;;;;;5017799;28;45593;-77
2021/06/25 10:16:00;;;;;;;;;12.25;12.00;;;;;;;;5008263;28;45553;-77
2021/06/25 10:18:25;;;;;;;;;16.00;14.50;;;;;;;;5006150;28;45551;-77
2021/06/25 10:20:51;;;;;;;;;15.00;12.50;;;;;;;;4971802;28;45527;-78
2021/06/25 10:23:17;;;;;;;;;13.25;12.50;;;;;;;;5005804;28;45568;-77
2021/06/25 10:25:45;;;;;;;;;13.75;12.00;;;;;;;;5010205;28;46569;-77
2021/06/25 10:28:11;;;;;;;;;17.25;14.25;;;;;;;;5008126;28;45620;-77
2021/06/25 10:30:36;;;;;;;;;14.00;13.00;;;;;;;;5004343;28;45685;-77
2021/06/25 10:33:01;;;;;;;;;14.25;13.00;;;;;;;;4990977;28;45690;-77
2021/06/25 10:35:27;;;;;;;;;12.75;12.75;;;;;;;;5015833;28;45442;-78
2021/06/25 10:37:52;;;;;;;;;18.00;15.00;;;;;;;;5011365;28;46792;-77
2021/06/25 10:40:22;;;;;;;;;16.50;13.50;;;;;;;;5012112;28;46187;-76
2021/06/25 10:42:47;;;;;;;;;14.00;11.75;;;;;;;;4995355;28;45711;-77
2021/06/25 10:45:13;;;;;;;;;13.50;12.25;;;;;;;;5009855;28;46126;-77
2021/06/25 10:47:51;;;;;;;;;11.00;11.00;;;;;;;;4983010;28;45755;-77
2021/06/25 10:50:20;;;;;;;;;11.25;10.75;;;;;;;;5009816;28;45489;-77
2021/06/25 10:53:03;;;;;;;;;11.00;9.25;;;;;;;;5011507;28;47279;-77
2021/06/25 10:55:29;;;;;;;;;12.50;12.50;;;;;;;;5012012;28;46437;-79
2021/06/25 10:57:54;;;;;;;;;14.75;11.00;;;;;;;;5014816;28;45464;-79
2021/06/25 11:00:38;;;;;;;;;15.67;13.00;;;;;;;;4995797;28;59051;-80
2021/06/25 11:03:03;;;;;;;;;18.00;15.25;;;;;;;;5011616;28;45608;-80
2021/06/25 11:05:35;;;;;;;;;13.50;12.00;;;;;;;;5007837;28;46542;-80
2021/06/25 11:08:18;;;;;;;;;14.00;12.50;;;;;;;;5003253;28;45643;-79
2021/06/25 11:10:50;;;;;;;;;11.50;11.00;;;;;;;;5006758;28;46128;-79
2021/06/25 11:13:17;;;;;;;;;15.00;13.25;;;;;;;;5006716;28;45548;-80
2021/06/25 11:15:49;;;;;;;;;12.50;11.25;;;;;;;;5006321;28;45822;-79
2021/06/25 11:18:18;;;;;;;;;13.25;11.75;;;;;;;;5002330;28;45688;-80
2021/06/25 11:20:51;;;;;;;;;14.75;11.75;;;;;;;;5013013;28;45531;-80
2021/06/25 11:23:22;;;;;;;;;12.50;9.75;;;;;;;;5004714;28;45480;-79
2021/06/25 11:25:49;;;;;;;;;13.25;10.50;;;;;;;;5003696;28;45903;-79
2021/06/25 11:28:33;;;;;;;;;13.25;13.25;;;;;;;;5014086;28;45671;-79
2021/06/25 11:30:59;;;;;;;;;10.75;10.00;;;;;;;;5008855;28;46336;-79
2021/06/25 11:33:26;;;;;;;;;12.50;12.50;;;;;;;;5005046;28;55543;-80
2021/06/25 11:35:52;;;;;;;;;16.50;13.00;;;;;;;;5009890;28;45612;-80
2021/06/25 11:38:17;;;;;;;;;13.75;13.00;;;;;;;;5010127;28;47332;-79
2021/06/25 11:40:49;;;;;;;;;10.67;10.67;;;;;;;;5006883;28;45627;-80
2021/06/25 11:43:16;;;;;;;;;10.50;8.50;;;;;;;;4996455;28;45553;-79
2021/06/25 11:45:46;;;;;;;;;8.50;8.50;;;;;;;;5005022;28;46086;-80
2021/06/25 11:48:13;;;;;;;;;11.25;10.00;;;;;;;;5009711;28;45440;-80
2021/06/25 11:50:38;;;;;;;;;11.75;7.00;;;;;;;;4993222;28;45522;-80
2021/06/25 11:53:07;;;;;;;;;9.00;9.00;;;;;;;;5007358;28;45586;-79
2021/06/25 11:55:32;;;;;;;;;10.25;9.25;;;;;;;;4991270;28;48067;-77
2021/06/25 11:57:57;;;;;;;;;10.00;8.75;;;;;;;;5002291;28;45516;-76
2021/06/25 12:00:24;;;;;;;;;9.50;9.50;;;;;;;;5001370;28;45441;-77
2021/06/25 12:02:49;;;;;;;;;11.50;9.00;;;;;;;;5005458;28;46195;-77
2021/06/25 12:05:15;;;;;;;;;11.75;10.00;;;;;;;;5019343;28;48574;-77
2021/06/25 12:07:41;;;;;;;;;9.75;9.00;;;;;;;;5003201;28;46643;-77
2021/06/25 12:10:07;;;;;;;;;12.25;10.00;;;;;;;;5008300;28;45568;-77
2021/06/25 12:12:37;;;;;;;;;10.50;7.25;;;;;;;;5004388;28;45592;-77
2021/06/25 12:15:06;;;;;;;;;8.50;8.50;;;;;;;;5006242;28;46181;-77
2021/06/25 12:17:44;;;;;;;;;9.50;8.00;;;;;;;;5012513;28;46661;-77
2021/06/25 12:20:16;;;;;;;;;12.00;9.00;;;;;;;;5003735;28;45586;-77
2021/06/25 12:22:58;;;;;;;;;10.50;9.00;;;;;;;;5000622;28;45531;-77
2021/06/25 12:25:28;;;;;;;;;8.75;8.75;;;;;;;;5005167;28;45529;-76
2021/06/25 12:27:53;;;;;;;;;7.25;7.25;;;;;;;;5007034;28;45606;-77
2021/06/25 12:30:19;;;;;;;;;8.25;7.00;;;;;;;;5004553;28;51351;-78
2021/06/25 12:32:44;;;;;;;;;9.00;6.50;;;;;;;;5014126;28;45469;-77
2021/06/25 12:35:10;;;;;;;;;6.00;5.00;;;;;;;;4999465;28;46078;-77
2021/06/25 12:37:46;;;;;;;;;5.75;5.75;;;;;;;;5004714;28;45449;-77
2021/06/25 12:40:12;;;;;;;;;7.75;5.00;;;;;;;;5010110;28;45617;-77
2021/06/25 12:42:38;;;;;;;;;4.50;4.25;;;;;;;;5002984;28;46549;-77
2021/06/25 12:45:03;;;;;;;;;2.75;2.75;;;;;;;;5010312;28;46507;-78
2021/06/25 12:47:29;;;;;;;;;4.50;4.25;;;;;;;;4994211;28;54723;-77
2021/06/25 12:49:54;;;;;;;;;9.00;4.00;;;;;;;;5420776;22;46823;-90
2021/06/25 12:54:50;;;;;;;;;5.00;5.00;;;;;;;;5007828;28;47045;-79
2021/06/25 12:57:15;;;;;;;;;4.50;4.50;;;;;;;;5011322;28;45694;-78
2021/06/25 12:59:41;;;;;;;;;5.50;5.00;;;;;;;;5311439;22;46254;-88
2021/06/25 13:02:06;;;;;;;;;4.00;4.00;;;;;;;;5001004;28;45585;-89
2021/06/25 13:04:32;;;;;;;;;5.00;5.00;;;;;;;;5008718;28;47924;-89
2021/06/25 13:07:01;;;;;;;;;7.25;4.00;;;;;;;;5006162;28;46683;-90
2021/06/25 13:09:28;;;;;;;;;4.75;4.75;;;;;;;;5008701;28;45528;-88
2021/06/25 13:12:08;;;;;;;;;5.75;5.75;;;;;;;;5009509;28;45763;-88
2021/06/25 13:14:34;;;;;;;;;7.25;5.00;;;;;;;;5006750;28;48363;-88
2021/06/25 13:17:03;;;;;;;;;7.00;5.75;;;;;;;;5007194;28;46043;-89
2021/06/25 13:19:33;;;;;;;;;7.00;5.75;;;;;;;;5005994;28;45498;-88
2021/06/25 13:22:06;;;;;;;;;5.75;5.50;;;;;;;;5009679;28;46178;-89
2021/06/25 13:27:08;;;;;;;;;5.25;5.25;;;;;;;;5089073;22;45352;-96
2021/06/25 13:29:43;;;;;;;;;5.50;5.50;;;;;;;;5003994;28;45984;-93
2021/06/25 13:32:11;;;;;;;;;6.75;4.25;;;;;;;;5097429;22;45923;-79
2021/06/25 13:34:36;;;;;;;;;4.25;4.25;;;;;;;;4989677;28;46259;-79
2021/06/25 13:37:02;;;;;;;;;5.00;5.00;;;;;;;;4992753;28;45464;-79
2021/06/25 13:39:29;;;;;;;;;6.50;3.75;;;;;;;;4971590;28;45457;-80
2021/06/25 13:41:55;;;;;;;;;5.75;4.75;;;;;;;;5406547;22;50899;-79
2021/06/25 13:44:27;;;;;;;;;5.75;4.75;;;;;;;;5049345;27;45960;-80
2021/06/25 13:47:02;;;;;;;;;5.50;5.50;;;;;;;;5050727;28;45630;-79
2021/06/25 13:49:30;;;;;;;;;7.50;7.00;;;;;;;;5047559;28;46652;-79
2021/06/25 13:51:56;;;;;;;;;6.50;5.50;;;;;;;;5039673;28;45359;-79
2021/06/25 13:54:21;;;;;;;;;8.75;5.25;;;;;;;;5052448;28;45504;-79
2021/06/25 13:56:57;;;;;;;;;7.00;5.25;;;;;;;;5048023;28;45533;-80
2021/06/25 13:59:34;;;;;;;;;6.50;6.50;;;;;;;;5038257;28;45684;-80
2021/06/25 14:01:59;;;;;;;;;7.00;5.25;;;;;;;;5040059;28;49410;-80
2021/06/25 14:04:25;;;;;;;;;7.50;7.50;;;;;;;;5042447;28;45534;-80
2021/06/25 14:06:51;;;;;;;;;9.00;8.00;;;;;;;;5031774;28;48406;-79
2021/06/25 14:09:18;;;;;;;;;7.00;6.25;;;;;;;;5050678;28;45964;-80
2021/06/25 14:11:43;;;;;;;;;7.75;6.00;;;;;;;;5043338;28;45556;-80
2021/06/25 14:14:09;;;;;;;;;10.00;6.67;;;;;;;;5040356;28;46204;-80
2021/06/25 14:16:34;;;;;;;;;7.00;6.75;;;;;;;;5041797;28;45500;-80
2021/06/25 14:19:02;;;;;;;;;7.25;6.50;;;;;;;;5036542;28;51829;-79
2021/06/25 14:21:39;;;;;;;;;5.00;5.00;;;;;;;;5041823;28;45440;-80
2021/06/25 14:24:05;;;;;;;;;6.00;6.00;;;;;;;;5044216;28;45577;-79
2021/06/25 14:26:31;;;;;;;;;7.75;5.25;;;;;;;;5045375;28;45818;-79
2021/06/25 14:28:57;;;;;;;;;6.75;5.00;;;;;;;;5038806;28;45522;-79
2021/06/25 14:31:23;;;;;;;;;6.25;5.50;;;;;;;;5039347;28;59255;-80
2021/06/25 14:33:49;;;;;;;;;7.00;6.00;;;;;;;;5039536;28;45630;-79
2021/06/25 14:36:14;;;;;;;;;7.25;6.25;;;;;;;;5040814;28;45564;-80
2021/06/25 14:38:40;;;;;;;;;8.00;5.25;;;;;;;;5045908;28;45882;-79
2021/06/25 14:41:06;;;;;;;;;5.25;5.25;;;;;;;;5033586;28;46428;-79